sensor_id;sensor_type;location;lat;lon;timestamp;temperature;humidity
35541;DHT22;21650;48.840;9.162;2024-03-02T00:00:20;5.80;99.90
35541;DHT22;21650;48.840;9.162;2024-03-02T00:02:48;5.80;99.90
35541;DHT22;21650;48.840;9.162;2024-03-02T00:05:22;5.80;99.90
35541;DHT22;21650;48.840;9.162;2024-03-02T00:07:54;5.70;99.90
35541;DHT22;21650;48.840;9.162;2024-03-02T00:10:23;5.70;99.90
35541;DHT22;21650;48.840;9.162;2024-03-02T00:12:54;5.70;99.90
35541;DHT22;21650;48.840;9.162;2024-03-02T00:17:57;5.70;99.90
35541;DHT22;21650;48.840;9.162;2024-03-02T00:20:24;5.70;99.90
35541;DHT22;21650;48.840;9.162;2024-03-02T00:23:04;5.70;99.90
35541;DHT22;21650;48.840;9.162;2024-03-02T00:25:49;5.70;99.90
35541;DHT22;21650;48.840;9.162;2024-03-02T00:31:04;5.60;99.90
35541;DHT22;21650;48.840;9.162;2024-03-02T00:33:47;5.70;99.90
35541;DHT22;21650;48.840;9.162;2024-03-02T00:36:21;5.70;99.90
35541;DHT22;21650;48.840;9.162;2024-03-02T00:38:51;5.70;99.90
35541;DHT22;21650;48.840;9.162;2024-03-02T00:41:30;5.60;99.90
35541;DHT22;21650;48.840;9.162;2024-03-02T00:44:04;5.60;99.90
35541;DHT22;21650;48.840;9.162;2024-03-02T00:46:40;5.60;99.90
35541;DHT22;21650;48.840;9.162;2024-03-02T00:49:20;5.60;99.90
35541;DHT22;21650;48.840;9.162;2024-03-02T00:51:47;5.70;99.90
35541;DHT22;21650;48.840;9.162;2024-03-02T00:54:22;5.70;99.90
35541;DHT22;21650;48.840;9.162;2024-03-02T00:56:50;5.70;99.90
35541;DHT22;21650;48.840;9.162;2024-03-02T00:59:16;5.70;99.90
35541;DHT22;21650;48.840;9.162;2024-03-02T01:01:41;5.60;99.90
35541;DHT22;21650;48.840;9.162;2024-03-02T01:04:08;5.60;99.90
35541;DHT22;21650;48.840;9.162;2024-03-02T01:06:37;5.60;99.90
35541;DHT22;21650;48.840;9.162;2024-03-02T01:09:03;5.60;99.90
35541;DHT22;21650;48.840;9.162;2024-03-02T01:11:29;5.60;99.90
35541;DHT22;21650;48.840;9.162;2024-03-02T01:13:55;5.50;99.90
35541;DHT22;21650;48.840;9.162;2024-03-02T01:16:21;5.50;99.90
35541;DHT22;21650;48.840;9.162;2024-03-02T01:18:46;5.50;99.90
35541;DHT22;21650;48.840;9.162;2024-03-02T01:21:12;5.50;99.90
35541;DHT22;21650;48.840;9.162;2024-03-02T01:23:37;5.50;99.90
35541;DHT22;21650;48.840;9.162;2024-03-02T01:26:03;5.50;99.90
35541;DHT22;21650;48.840;9.162;2024-03-02T01:28:29;5.50;99.90
35541;DHT22;21650;48.840;9.162;2024-03-02T01:30:54;5.50;99.90
35541;DHT22;21650;48.840;9.162;2024-03-02T01:33:20;5.40;99.90
35541;DHT22;21650;48.840;9.162;2024-03-02T01:35:46;5.30;99.90
35541;DHT22;21650;48.840;9.162;2024-03-02T01:38:12;5.30;99.90
35541;DHT22;21650;48.840;9.162;2024-03-02T01:40:38;5.30;99.90
35541;DHT22;21650;48.840;9.162;2024-03-02T01:43:05;5.20;99.90
35541;DHT22;21650;48.840;9.162;2024-03-02T01:45:31;5.20;99.90
35541;DHT22;21650;48.840;9.162;2024-03-02T01:47:57;5.10;99.90
35541;DHT22;21650;48.840;9.162;2024-03-02T01:50:31;5.10;99.90
35541;DHT22;21650;48.840;9.162;2024-03-02T01:52:58;5.10;99.90
35541;DHT22;21650;48.840;9.162;2024-03-02T01:55:24;5.00;99.90
35541;DHT22;21650;48.840;9.162;2024-03-02T01:57:50;5.00;99.90
35541;DHT22;21650;48.840;9.162;2024-03-02T02:00:22;5.10;99.90
35541;DHT22;21650;48.840;9.162;2024-03-02T02:02:50;5.00;99.90
35541;DHT22;21650;48.840;9.162;2024-03-02T02:05:15;5.00;99.90
35541;DHT22;21650;48.840;9.162;2024-03-02T02:07:42;4.90;99.90
35541;DHT22;21650;48.840;9.162;2024-03-02T02:10:09;4.90;99.90
35541;DHT22;21650;48.840;9.162;2024-03-02T02:12:35;4.90;99.90
35541;DHT22;21650;48.840;9.162;2024-03-02T02:15:02;4.90;99.90
35541;DHT22;21650;48.840;9.162;2024-03-02T02:17:27;4.80;99.90
35541;DHT22;21650;48.840;9.162;2024-03-02T02:19:53;4.80;99.90
35541;DHT22;21650;48.840;9.162;2024-03-02T02:22:19;4.80;99.90
35541;DHT22;21650;48.840;9.162;2024-03-02T02:24:44;4.70;99.90
35541;DHT22;21650;48.840;9.162;2024-03-02T02:27:10;4.80;99.90
35541;DHT22;21650;48.840;9.162;2024-03-02T02:29:37;4.70;99.90
35541;DHT22;21650;48.840;9.162;2024-03-02T02:32:03;4.70;99.90
35541;DHT22;21650;48.840;9.162;2024-03-02T02:34:29;4.70;99.90
35541;DHT22;21650;48.840;9.162;2024-03-02T02:36:55;4.60;99.90
35541;DHT22;21650;48.840;9.162;2024-03-02T02:39:21;4.70;99.90
35541;DHT22;21650;48.840;9.162;2024-03-02T02:41:48;4.60;99.90
35541;DHT22;21650;48.840;9.162;2024-03-02T02:44:13;4.50;99.90
35541;DHT22;21650;48.840;9.162;2024-03-02T02:46:40;4.40;99.90
35541;DHT22;21650;48.840;9.162;2024-03-02T02:49:05;4.40;99.90
35541;DHT22;21650;48.840;9.162;2024-03-02T02:51:31;4.40;99.90
35541;DHT22;21650;48.840;9.162;2024-03-02T02:53:57;4.30;99.90
35541;DHT22;21650;48.840;9.162;2024-03-02T02:56:22;4.40;99.90
35541;DHT22;21650;48.840;9.162;2024-03-02T02:58:48;4.40;99.90
35541;DHT22;21650;48.840;9.162;2024-03-02T03:01:15;4.30;99.90
35541;DHT22;21650;48.840;9.162;2024-03-02T03:03:43;4.30;99.90
35541;DHT22;21650;48.840;9.162;2024-03-02T03:06:09;4.30;99.90
35541;DHT22;21650;48.840;9.162;2024-03-02T03:08:35;4.30;99.90
35541;DHT22;21650;48.840;9.162;2024-03-02T03:11:00;4.30;99.90
35541;DHT22;21650;48.840;9.162;2024-03-02T03:13:26;4.30;99.90
35541;DHT22;21650;48.840;9.162;2024-03-02T03:15:51;4.30;99.90
35541;DHT22;21650;48.840;9.162;2024-03-02T03:18:18;4.30;99.90
35541;DHT22;21650;48.840;9.162;2024-03-02T03:20:44;4.20;99.90
35541;DHT22;21650;48.840;9.162;2024-03-02T03:23:09;4.20;99.90
35541;DHT22;21650;48.840;9.162;2024-03-02T03:25:40;4.30;99.90
35541;DHT22;21650;48.840;9.162;2024-03-02T03:28:06;4.20;99.90
35541;DHT22;21650;48.840;9.162;2024-03-02T03:30:31;4.20;99.90
35541;DHT22;21650;48.840;9.162;2024-03-02T03:32:57;4.20;99.90
35541;DHT22;21650;48.840;9.162;2024-03-02T03:35:22;4.20;99.90
35541;DHT22;21650;48.840;9.162;2024-03-02T03:37:48;4.30;99.90
35541;DHT22;21650;48.840;9.162;2024-03-02T03:40:13;4.20;99.90
35541;DHT22;21650;48.840;9.162;2024-03-02T03:42:39;4.20;99.90
35541;DHT22;21650;48.840;9.162;2024-03-02T03:45:06;4.20;99.90
35541;DHT22;21650;48.840;9.162;2024-03-02T03:47:32;4.10;99.90
35541;DHT22;21650;48.840;9.162;2024-03-02T03:49:58;4.10;99.90
35541;DHT22;21650;48.840;9.162;2024-03-02T03:52:24;4.10;99.90
35541;DHT22;21650;48.840;9.162;2024-03-02T03:54:49;4.10;99.90
35541;DHT22;21650;48.840;9.162;2024-03-02T03:57:15;4.10;99.90
35541;DHT22;21650;48.840;9.162;2024-03-02T03:59:41;4.10;99.90
35541;DHT22;21650;48.840;9.162;2024-03-02T04:02:08;4.10;99.90
35541;DHT22;21650;48.840;9.162;2024-03-02T04:04:34;4.00;99.90
35541;DHT22;21650;48.840;9.162;2024-03-02T04:07:00;4.00;99.90
35541;DHT22;21650;48.840;9.162;2024-03-02T04:09:25;4.10;99.90
35541;DHT22;21650;48.840;9.162;2024-03-02T04:11:51;4.10;99.90
35541;DHT22;21650;48.840;9.162;2024-03-02T04:14:17;4.00;99.90
35541;DHT22;21650;48.840;9.162;2024-03-02T04:16:42;4.00;99.90
35541;DHT22;21650;48.840;9.162;2024-03-02T04:19:08;3.90;99.90
35541;DHT22;21650;48.840;9.162;2024-03-02T04:21:34;3.90;99.90
35541;DHT22;21650;48.840;9.162;2024-03-02T04:23:59;3.90;99.90
35541;DHT22;21650;48.840;9.162;2024-03-02T04:26:25;4.00;99.90
35541;DHT22;21650;48.840;9.162;2024-03-02T04:28:52;4.00;99.90
35541;DHT22;21650;48.840;9.162;2024-03-02T04:31:17;4.00;99.90
35541;DHT22;21650;48.840;9.162;2024-03-02T04:33:43;4.00;99.90
35541;DHT22;21650;48.840;9.162;2024-03-02T04:36:09;4.00;99.90
35541;DHT22;21650;48.840;9.162;2024-03-02T04:38:35;4.00;99.90
35541;DHT22;21650;48.840;9.162;2024-03-02T04:41:01;4.00;99.90
35541;DHT22;21650;48.840;9.162;2024-03-02T04:43:26;3.90;99.90
35541;DHT22;21650;48.840;9.162;2024-03-02T04:45:52;3.80;99.90
35541;DHT22;21650;48.840;9.162;2024-03-02T04:48:18;3.80;99.90
35541;DHT22;21650;48.840;9.162;2024-03-02T04:50:44;3.80;99.90
35541;DHT22;21650;48.840;9.162;2024-03-02T04:53:10;3.80;99.90
35541;DHT22;21650;48.840;9.162;2024-03-02T04:55:36;3.80;99.90
35541;DHT22;21650;48.840;9.162;2024-03-02T04:58:04;3.70;99.90
35541;DHT22;21650;48.840;9.162;2024-03-02T05:00:30;3.70;99.90
35541;DHT22;21650;48.840;9.162;2024-03-02T05:02:56;3.70;99.90
35541;DHT22;21650;48.840;9.162;2024-03-02T05:05:22;3.80;99.90
35541;DHT22;21650;48.840;9.162;2024-03-02T05:07:47;3.80;99.90
35541;DHT22;21650;48.840;9.162;2024-03-02T05:10:13;3.80;99.90
35541;DHT22;21650;48.840;9.162;2024-03-02T05:12:39;3.80;99.90
35541;DHT22;21650;48.840;9.162;2024-03-02T05:15:08;3.80;99.90
35541;DHT22;21650;48.840;9.162;2024-03-02T05:17:35;3.80;99.90
35541;DHT22;21650;48.840;9.162;2024-03-02T05:20:01;3.70;99.90
35541;DHT22;21650;48.840;9.162;2024-03-02T05:22:27;3.70;99.90
35541;DHT22;21650;48.840;9.162;2024-03-02T05:24:53;3.70;99.90
35541;DHT22;21650;48.840;9.162;2024-03-02T05:27:18;3.70;99.90
35541;DHT22;21650;48.840;9.162;2024-03-02T05:29:44;3.70;99.90
35541;DHT22;21650;48.840;9.162;2024-03-02T05:32:09;3.70;99.90
35541;DHT22;21650;48.840;9.162;2024-03-02T05:34:35;3.70;99.90
35541;DHT22;21650;48.840;9.162;2024-03-02T05:37:01;3.70;99.90
35541;DHT22;21650;48.840;9.162;2024-03-02T05:39:27;3.70;99.90
35541;DHT22;21650;48.840;9.162;2024-03-02T05:41:53;3.60;99.90
35541;DHT22;21650;48.840;9.162;2024-03-02T05:44:18;3.70;99.90
35541;DHT22;21650;48.840;9.162;2024-03-02T05:46:45;3.60;99.90
35541;DHT22;21650;48.840;9.162;2024-03-02T05:49:11;3.70;99.90
35541;DHT22;21650;48.840;9.162;2024-03-02T05:51:36;3.60;99.90
35541;DHT22;21650;48.840;9.162;2024-03-02T05:54:02;3.60;99.90
35541;DHT22;21650;48.840;9.162;2024-03-02T05:56:28;3.50;99.90
35541;DHT22;21650;48.840;9.162;2024-03-02T05:58:54;3.50;99.90
35541;DHT22;21650;48.840;9.162;2024-03-02T06:01:43;3.50;99.90
35541;DHT22;21650;48.840;9.162;2024-03-02T06:04:10;3.50;99.90
35541;DHT22;21650;48.840;9.162;2024-03-02T06:06:36;3.50;99.90
35541;DHT22;21650;48.840;9.162;2024-03-02T06:09:02;3.50;99.90
35541;DHT22;21650;48.840;9.162;2024-03-02T06:11:33;3.50;99.90
35541;DHT22;21650;48.840;9.162;2024-03-02T06:13:59;3.50;99.90
35541;DHT22;21650;48.840;9.162;2024-03-02T06:16:24;3.60;99.90
35541;DHT22;21650;48.840;9.162;2024-03-02T06:18:50;3.60;99.90
35541;DHT22;21650;48.840;9.162;2024-03-02T06:21:16;3.60;99.90
35541;DHT22;21650;48.840;9.162;2024-03-02T06:23:43;3.50;99.90
35541;DHT22;21650;48.840;9.162;2024-03-02T06:26:09;3.60;99.90
35541;DHT22;21650;48.840;9.162;2024-03-02T06:28:34;3.60;99.90
35541;DHT22;21650;48.840;9.162;2024-03-02T06:31:01;3.70;99.90
35541;DHT22;21650;48.840;9.162;2024-03-02T06:33:27;3.70;99.90
35541;DHT22;21650;48.840;9.162;2024-03-02T06:35:54;3.80;99.90
35541;DHT22;21650;48.840;9.162;2024-03-02T06:38:19;3.80;99.90
35541;DHT22;21650;48.840;9.162;2024-03-02T06:40:45;3.90;99.90
35541;DHT22;21650;48.840;9.162;2024-03-02T06:43:11;4.00;99.90
35541;DHT22;21650;48.840;9.162;2024-03-02T06:45:36;4.00;99.90
35541;DHT22;21650;48.840;9.162;2024-03-02T06:48:02;4.10;99.90
35541;DHT22;21650;48.840;9.162;2024-03-02T06:50:28;4.20;99.90
35541;DHT22;21650;48.840;9.162;2024-03-02T06:52:54;4.30;99.90
35541;DHT22;21650;48.840;9.162;2024-03-02T06:55:21;4.30;99.90
35541;DHT22;21650;48.840;9.162;2024-03-02T06:57:47;4.40;99.90
35541;DHT22;21650;48.840;9.162;2024-03-02T07:00:13;4.50;99.90
35541;DHT22;21650;48.840;9.162;2024-03-02T07:02:39;4.50;99.90
35541;DHT22;21650;48.840;9.162;2024-03-02T07:05:07;4.60;99.90
35541;DHT22;21650;48.840;9.162;2024-03-02T07:07:34;4.70;99.90
35541;DHT22;21650;48.840;9.162;2024-03-02T07:10:01;4.80;99.90
35541;DHT22;21650;48.840;9.162;2024-03-02T07:12:26;4.90;99.90
35541;DHT22;21650;48.840;9.162;2024-03-02T07:14:52;5.00;99.90
35541;DHT22;21650;48.840;9.162;2024-03-02T07:17:30;5.10;99.90
35541;DHT22;21650;48.840;9.162;2024-03-02T07:19:56;5.20;99.90
35541;DHT22;21650;48.840;9.162;2024-03-02T07:22:22;5.20;99.90
35541;DHT22;21650;48.840;9.162;2024-03-02T07:24:48;5.30;99.90
35541;DHT22;21650;48.840;9.162;2024-03-02T07:27:15;5.40;99.90
35541;DHT22;21650;48.840;9.162;2024-03-02T07:29:41;5.50;99.90
35541;DHT22;21650;48.840;9.162;2024-03-02T07:32:08;5.50;99.90
35541;DHT22;21650;48.840;9.162;2024-03-02T07:34:34;5.60;99.90
35541;DHT22;21650;48.840;9.162;2024-03-02T07:36:59;5.60;99.90
35541;DHT22;21650;48.840;9.162;2024-03-02T07:39:25;5.60;99.90
35541;DHT22;21650;48.840;9.162;2024-03-02T07:41:51;5.60;99.90
35541;DHT22;21650;48.840;9.162;2024-03-02T07:44:17;5.60;99.90
35541;DHT22;21650;48.840;9.162;2024-03-02T07:46:44;5.60;99.90
35541;DHT22;21650;48.840;9.162;2024-03-02T07:49:12;5.60;99.90
35541;DHT22;21650;48.840;9.162;2024-03-02T07:51:39;5.60;99.90
35541;DHT22;21650;48.840;9.162;2024-03-02T07:54:04;5.60;99.90
35541;DHT22;21650;48.840;9.162;2024-03-02T07:56:30;5.70;99.90
35541;DHT22;21650;48.840;9.162;2024-03-02T07:58:56;5.70;99.90
35541;DHT22;21650;48.840;9.162;2024-03-02T08:01:29;5.80;99.90
35541;DHT22;21650;48.840;9.162;2024-03-02T08:03:58;5.80;99.90
35541;DHT22;21650;48.840;9.162;2024-03-02T08:06:28;5.90;99.90
35541;DHT22;21650;48.840;9.162;2024-03-02T08:08:54;5.90;99.90
35541;DHT22;21650;48.840;9.162;2024-03-02T08:11:21;5.90;99.90
35541;DHT22;21650;48.840;9.162;2024-03-02T08:13:47;6.00;99.90
35541;DHT22;21650;48.840;9.162;2024-03-02T08:16:13;6.00;99.90
35541;DHT22;21650;48.840;9.162;2024-03-02T08:18:39;6.00;99.90
35541;DHT22;21650;48.840;9.162;2024-03-02T08:21:04;6.10;99.90
35541;DHT22;21650;48.840;9.162;2024-03-02T08:23:30;6.10;99.90
35541;DHT22;21650;48.840;9.162;2024-03-02T08:25:57;6.10;99.90
35541;DHT22;21650;48.840;9.162;2024-03-02T08:28:23;6.10;99.90
35541;DHT22;21650;48.840;9.162;2024-03-02T08:30:48;6.20;99.90
35541;DHT22;21650;48.840;9.162;2024-03-02T08:33:14;6.30;99.90
35541;DHT22;21650;48.840;9.162;2024-03-02T08:35:39;6.40;99.90
35541;DHT22;21650;48.840;9.162;2024-03-02T08:38:05;6.50;99.90
35541;DHT22;21650;48.840;9.162;2024-03-02T08:40:31;6.60;99.90
35541;DHT22;21650;48.840;9.162;2024-03-02T08:42:57;6.70;99.90
35541;DHT22;21650;48.840;9.162;2024-03-02T08:45:22;6.70;99.90
35541;DHT22;21650;48.840;9.162;2024-03-02T08:47:48;6.70;99.90
35541;DHT22;21650;48.840;9.162;2024-03-02T08:50:14;6.70;99.90
35541;DHT22;21650;48.840;9.162;2024-03-02T08:52:39;6.70;99.90
35541;DHT22;21650;48.840;9.162;2024-03-02T08:55:06;6.80;99.90
35541;DHT22;21650;48.840;9.162;2024-03-02T08:57:32;6.80;99.90
35541;DHT22;21650;48.840;9.162;2024-03-02T08:59:58;7.00;99.90
35541;DHT22;21650;48.840;9.162;2024-03-02T09:02:24;7.20;99.90
35541;DHT22;21650;48.840;9.162;2024-03-02T09:04:50;7.30;99.90
35541;DHT22;21650;48.840;9.162;2024-03-02T09:07:16;7.30;99.90
35541;DHT22;21650;48.840;9.162;2024-03-02T09:09:41;7.40;99.90
35541;DHT22;21650;48.840;9.162;2024-03-02T09:12:07;7.50;99.90
35541;DHT22;21650;48.840;9.162;2024-03-02T09:14:33;7.60;99.90
35541;DHT22;21650;48.840;9.162;2024-03-02T09:16:59;7.70;99.90
35541;DHT22;21650;48.840;9.162;2024-03-02T09:19:24;7.70;99.90
35541;DHT22;21650;48.840;9.162;2024-03-02T09:21:50;7.90;99.90
35541;DHT22;21650;48.840;9.162;2024-03-02T09:24:16;8.10;99.90
35541;DHT22;21650;48.840;9.162;2024-03-02T09:26:41;8.00;99.90
35541;DHT22;21650;48.840;9.162;2024-03-02T09:29:07;8.20;99.90
35541;DHT22;21650;48.840;9.162;2024-03-02T09:31:32;8.40;99.90
35541;DHT22;21650;48.840;9.162;2024-03-02T09:33:58;8.50;99.90
35541;DHT22;21650;48.840;9.162;2024-03-02T09:36:24;8.70;99.90
35541;DHT22;21650;48.840;9.162;2024-03-02T09:38:50;8.70;99.90
35541;DHT22;21650;48.840;9.162;2024-03-02T09:41:15;8.70;99.90
35541;DHT22;21650;48.840;9.162;2024-03-02T09:43:41;8.90;99.90
35541;DHT22;21650;48.840;9.162;2024-03-02T09:46:09;9.00;99.90
35541;DHT22;21650;48.840;9.162;2024-03-02T09:48:35;9.10;99.90
35541;DHT22;21650;48.840;9.162;2024-03-02T09:51:01;9.20;99.90
35541;DHT22;21650;48.840;9.162;2024-03-02T09:53:33;9.60;99.90
35541;DHT22;21650;48.840;9.162;2024-03-02T09:55:59;9.70;99.90
35541;DHT22;21650;48.840;9.162;2024-03-02T09:58:25;9.90;99.90
35541;DHT22;21650;48.840;9.162;2024-03-02T10:00:51;9.80;99.90
35541;DHT22;21650;48.840;9.162;2024-03-02T10:03:18;9.80;99.90
35541;DHT22;21650;48.840;9.162;2024-03-02T10:05:44;10.20;99.90
35541;DHT22;21650;48.840;9.162;2024-03-02T10:08:10;10.20;99.90
35541;DHT22;21650;48.840;9.162;2024-03-02T10:10:39;10.10;99.90
35541;DHT22;21650;48.840;9.162;2024-03-02T10:13:09;10.40;99.90
35541;DHT22;21650;48.840;9.162;2024-03-02T10:15:36;10.40;99.90
35541;DHT22;21650;48.840;9.162;2024-03-02T10:18:12;10.30;99.90
35541;DHT22;21650;48.840;9.162;2024-03-02T10:20:38;10.50;99.90
35541;DHT22;21650;48.840;9.162;2024-03-02T10:23:12;10.60;99.90
35541;DHT22;21650;48.840;9.162;2024-03-02T10:25:38;11.00;99.90
35541;DHT22;21650;48.840;9.162;2024-03-02T10:28:04;10.70;99.90
35541;DHT22;21650;48.840;9.162;2024-03-02T10:30:33;11.00;99.90
35541;DHT22;21650;48.840;9.162;2024-03-02T10:33:03;11.00;99.90
35541;DHT22;21650;48.840;9.162;2024-03-02T10:35:29;10.90;99.90
35541;DHT22;21650;48.840;9.162;2024-03-02T10:37:59;10.90;99.90
35541;DHT22;21650;48.840;9.162;2024-03-02T10:40:26;11.00;99.90
35541;DHT22;21650;48.840;9.162;2024-03-02T10:42:52;11.20;99.90
35541;DHT22;21650;48.840;9.162;2024-03-02T10:45:19;11.40;99.90
35541;DHT22;21650;48.840;9.162;2024-03-02T10:47:47;11.40;99.90
35541;DHT22;21650;48.840;9.162;2024-03-02T10:50:13;11.30;99.90
35541;DHT22;21650;48.840;9.162;2024-03-02T10:52:38;11.00;99.90
35541;DHT22;21650;48.840;9.162;2024-03-02T10:55:08;11.30;99.90
35541;DHT22;21650;48.840;9.162;2024-03-02T10:57:41;11.10;99.90
35541;DHT22;21650;48.840;9.162;2024-03-02T11:00:12;11.30;99.90
35541;DHT22;21650;48.840;9.162;2024-03-02T11:02:50;11.40;99.90
35541;DHT22;21650;48.840;9.162;2024-03-02T11:05:22;11.30;99.90
35541;DHT22;21650;48.840;9.162;2024-03-02T11:07:53;11.60;99.90
35541;DHT22;21650;48.840;9.162;2024-03-02T11:10:22;11.70;99.90
35541;DHT22;21650;48.840;9.162;2024-03-02T11:13:00;12.00;99.90
35541;DHT22;21650;48.840;9.162;2024-03-02T11:15:27;11.80;99.90
35541;DHT22;21650;48.840;9.162;2024-03-02T11:17:54;12.00;99.90
35541;DHT22;21650;48.840;9.162;2024-03-02T11:20:20;12.10;99.90
35541;DHT22;21650;48.840;9.162;2024-03-02T11:22:46;12.10;99.90
35541;DHT22;21650;48.840;9.162;2024-03-02T11:25:26;12.10;99.90
35541;DHT22;21650;48.840;9.162;2024-03-02T11:30:49;12.10;99.90
35541;DHT22;21650;48.840;9.162;2024-03-02T11:33:23;12.30;99.90
35541;DHT22;21650;48.840;9.162;2024-03-02T11:35:48;12.70;99.90
35541;DHT22;21650;48.840;9.162;2024-03-02T11:38:15;12.70;99.90
35541;DHT22;21650;48.840;9.162;2024-03-02T11:40:41;12.70;99.90
35541;DHT22;21650;48.840;9.162;2024-03-02T11:43:07;12.80;99.90
35541;DHT22;21650;48.840;9.162;2024-03-02T11:45:36;12.70;99.90
35541;DHT22;21650;48.840;9.162;2024-03-02T11:48:06;12.80;99.90
35541;DHT22;21650;48.840;9.162;2024-03-02T11:50:40;13.00;99.90
35541;DHT22;21650;48.840;9.162;2024-03-02T11:53:07;13.10;99.90
35541;DHT22;21650;48.840;9.162;2024-03-02T11:55:39;13.10;99.90
35541;DHT22;21650;48.840;9.162;2024-03-02T11:58:06;13.30;99.90
35541;DHT22;21650;48.840;9.162;2024-03-02T12:00:32;13.30;99.90
35541;DHT22;21650;48.840;9.162;2024-03-02T12:03:04;12.80;99.90
35541;DHT22;21650;48.840;9.162;2024-03-02T12:05:30;13.00;99.90
35541;DHT22;21650;48.840;9.162;2024-03-02T12:08:00;13.20;99.90
35541;DHT22;21650;48.840;9.162;2024-03-02T12:10:27;13.40;99.90
35541;DHT22;21650;48.840;9.162;2024-03-02T12:13:00;13.20;99.90
35541;DHT22;21650;48.840;9.162;2024-03-02T12:15:31;13.30;99.90
35541;DHT22;21650;48.840;9.162;2024-03-02T12:17:58;13.00;99.90
35541;DHT22;21650;48.840;9.162;2024-03-02T12:20:25;13.20;99.90
35541;DHT22;21650;48.840;9.162;2024-03-02T12:22:55;13.60;99.90
35541;DHT22;21650;48.840;9.162;2024-03-02T12:25:22;13.60;99.90
35541;DHT22;21650;48.840;9.162;2024-03-02T12:27:56;13.60;99.90
35541;DHT22;21650;48.840;9.162;2024-03-02T12:30:22;13.50;99.90
35541;DHT22;21650;48.840;9.162;2024-03-02T12:32:48;13.80;99.90
35541;DHT22;21650;48.840;9.162;2024-03-02T12:35:14;13.80;99.90
35541;DHT22;21650;48.840;9.162;2024-03-02T12:37:48;13.70;99.90
35541;DHT22;21650;48.840;9.162;2024-03-02T12:40:16;13.80;99.90
35541;DHT22;21650;48.840;9.162;2024-03-02T12:42:46;13.80;99.90
35541;DHT22;21650;48.840;9.162;2024-03-02T12:45:12;14.10;99.90
35541;DHT22;21650;48.840;9.162;2024-03-02T12:47:40;14.10;99.90
35541;DHT22;21650;48.840;9.162;2024-03-02T12:50:06;14.10;99.90
35541;DHT22;21650;48.840;9.162;2024-03-02T12:52:33;14.30;99.90
35541;DHT22;21650;48.840;9.162;2024-03-02T12:55:00;14.30;99.90
35541;DHT22;21650;48.840;9.162;2024-03-02T12:57:28;14.30;99.90
35541;DHT22;21650;48.840;9.162;2024-03-02T13:00:12;14.30;99.90
35541;DHT22;21650;48.840;9.162;2024-03-02T13:02:41;14.30;99.90
35541;DHT22;21650;48.840;9.162;2024-03-02T13:05:08;14.40;99.90
35541;DHT22;21650;48.840;9.162;2024-03-02T13:07:37;14.30;99.90
35541;DHT22;21650;48.840;9.162;2024-03-02T13:10:03;14.50;99.90
35541;DHT22;21650;48.840;9.162;2024-03-02T13:12:30;14.50;99.90
35541;DHT22;21650;48.840;9.162;2024-03-02T13:14:58;14.60;99.90
35541;DHT22;21650;48.840;9.162;2024-03-02T13:17:24;14.60;99.90
35541;DHT22;21650;48.840;9.162;2024-03-02T13:19:57;14.80;99.90
35541;DHT22;21650;48.840;9.162;2024-03-02T13:22:24;14.90;99.90
35541;DHT22;21650;48.840;9.162;2024-03-02T13:24:50;14.80;99.90
35541;DHT22;21650;48.840;9.162;2024-03-02T13:27:16;14.60;99.90
35541;DHT22;21650;48.840;9.162;2024-03-02T13:29:45;14.40;99.90
35541;DHT22;21650;48.840;9.162;2024-03-02T13:32:11;14.60;99.90
35541;DHT22;21650;48.840;9.162;2024-03-02T13:34:37;14.80;99.90
35541;DHT22;21650;48.840;9.162;2024-03-02T13:37:03;14.90;99.90
35541;DHT22;21650;48.840;9.162;2024-03-02T13:39:30;14.80;99.90
35541;DHT22;21650;48.840;9.162;2024-03-02T13:41:58;14.70;99.90
35541;DHT22;21650;48.840;9.162;2024-03-02T13:44:30;14.70;99.90
35541;DHT22;21650;48.840;9.162;2024-03-02T13:46:56;14.80;99.90
35541;DHT22;21650;48.840;9.162;2024-03-02T13:49:21;14.70;99.90
35541;DHT22;21650;48.840;9.162;2024-03-02T13:51:48;14.60;99.90
35541;DHT22;21650;48.840;9.162;2024-03-02T13:54:14;14.80;99.90
35541;DHT22;21650;48.840;9.162;2024-03-02T13:56:39;14.70;99.90
35541;DHT22;21650;48.840;9.162;2024-03-02T13:59:06;14.80;99.90
35541;DHT22;21650;48.840;9.162;2024-03-02T14:01:32;14.90;99.90
35541;DHT22;21650;48.840;9.162;2024-03-02T14:03:58;15.00;99.90
35541;DHT22;21650;48.840;9.162;2024-03-02T14:06:24;15.00;99.90
35541;DHT22;21650;48.840;9.162;2024-03-02T14:08:52;14.80;99.90
35541;DHT22;21650;48.840;9.162;2024-03-02T14:11:18;14.70;99.90
35541;DHT22;21650;48.840;9.162;2024-03-02T14:13:44;14.60;99.90
35541;DHT22;21650;48.840;9.162;2024-03-02T14:16:15;14.60;99.90
35541;DHT22;21650;48.840;9.162;2024-03-02T14:18:41;14.60;99.90
35541;DHT22;21650;48.840;9.162;2024-03-02T14:21:07;14.80;99.90
35541;DHT22;21650;48.840;9.162;2024-03-02T14:23:33;14.90;99.90
35541;DHT22;21650;48.840;9.162;2024-03-02T14:25:58;14.90;99.90
35541;DHT22;21650;48.840;9.162;2024-03-02T14:28:24;14.80;99.90
35541;DHT22;21650;48.840;9.162;2024-03-02T14:30:50;14.80;99.90
35541;DHT22;21650;48.840;9.162;2024-03-02T14:33:16;14.90;99.90
35541;DHT22;21650;48.840;9.162;2024-03-02T14:35:42;14.80;99.90
35541;DHT22;21650;48.840;9.162;2024-03-02T14:38:07;14.70;99.90
35541;DHT22;21650;48.840;9.162;2024-03-02T14:40:33;14.70;99.90
35541;DHT22;21650;48.840;9.162;2024-03-02T14:42:59;14.70;99.90
35541;DHT22;21650;48.840;9.162;2024-03-02T14:45:24;14.80;99.90
35541;DHT22;21650;48.840;9.162;2024-03-02T14:47:51;14.80;99.90
35541;DHT22;21650;48.840;9.162;2024-03-02T14:50:17;15.10;99.90
35541;DHT22;21650;48.840;9.162;2024-03-02T14:52:44;14.90;99.90
35541;DHT22;21650;48.840;9.162;2024-03-02T14:55:10;15.00;99.90
35541;DHT22;21650;48.840;9.162;2024-03-02T14:57:36;15.00;99.90
35541;DHT22;21650;48.840;9.162;2024-03-02T15:00:02;15.00;99.90
35541;DHT22;21650;48.840;9.162;2024-03-02T15:02:28;15.00;99.90
35541;DHT22;21650;48.840;9.162;2024-03-02T15:04:54;15.20;99.90
35541;DHT22;21650;48.840;9.162;2024-03-02T15:07:20;15.20;99.90
35541;DHT22;21650;48.840;9.162;2024-03-02T15:09:46;15.30;99.90
35541;DHT22;21650;48.840;9.162;2024-03-02T15:12:11;15.30;99.20
35541;DHT22;21650;48.840;9.162;2024-03-02T15:14:40;15.40;98.80
35541;DHT22;21650;48.840;9.162;2024-03-02T15:17:14;15.20;98.70
35541;DHT22;21650;48.840;9.162;2024-03-02T15:19:44;15.20;98.70
35541;DHT22;21650;48.840;9.162;2024-03-02T15:22:09;15.20;99.10
35541;DHT22;21650;48.840;9.162;2024-03-02T15:24:35;15.20;98.70
35541;DHT22;21650;48.840;9.162;2024-03-02T15:27:01;14.90;99.60
35541;DHT22;21650;48.840;9.162;2024-03-02T15:29:31;14.80;99.10
35541;DHT22;21650;48.840;9.162;2024-03-02T15:32:00;14.60;99.30
35541;DHT22;21650;48.840;9.162;2024-03-02T15:34:25;14.70;99.20
35541;DHT22;21650;48.840;9.162;2024-03-02T15:36:51;14.50;99.90
35541;DHT22;21650;48.840;9.162;2024-03-02T15:39:16;14.50;98.90
35541;DHT22;21650;48.840;9.162;2024-03-02T15:41:46;14.50;99.00
35541;DHT22;21650;48.840;9.162;2024-03-02T15:44:12;14.30;99.30
35541;DHT22;21650;48.840;9.162;2024-03-02T15:46:38;14.30;99.20